Saint-Jovite, Quebec

12:44 PM EDT on August 29, 2014 (GMT -0400)
IQUBECST13 | Change Station
CLOSE
Current Station
Personal Weather Station
Location: Ste-Agathe-des-Monts, QUéBEC
Elevation: 1234 ft
Nearby Weather Stations

Elev 1234 ft 46.05 °N, 74.25 °W | Updated 13 minutes ago

Mostly Cloudy
Mostly Cloudy
70.0 °F
Feels Like 70.0 °F
N
3.0
Wind Variable Wind from South
Gusts 4.0 mph

Today is forecast to be nearly the same temperature as yesterday.

Today
High -- | Low -- °F
--% Chance of Precip.
Yesterday
High -- | Low -- °F
Precip. -- in
6:14 AM 7:42 PM
Waxing Crescent, 15% visible
Pressure 30.24 in
Visibility 45.0 miles
Clouds Mostly Cloudy 2400 ft
Dew Point 55 °F
Humidity 58%
Rainfall 0.00 in
Snow Depth Not available.
UV 4 out of 12
Pollen Not available.
Air Quality Not available.
Flu Activity Not available.
METAR CYMX 291600Z VRB02KT 45SM BKN024 19/12 A3023 RMK CU5 SLP238 DENSITY ALT 400FT

More Conditions Fewer Conditions

Pressure 30.24 in
Visibility 45.0 miles
Clouds Mostly Cloudy 2400 ft
Dew Point 55 °F
Humidity 58%
Rainfall 0.00 in
Snow Depth Not available.
UV 4 out of 12
Pollen Not available.
Air Quality Not available.
Flu Activity Not available.
METAR CYMX 291600Z VRB02KT 45SM BKN024 19/12 A3023 RMK CU5 SLP238 DENSITY ALT 400FT

More Conditions Fewer Conditions

10-Day Weather Forecast

Almanac

Astronomy

Aug. 29, 2014 Rise Set
Actual Time 6:14 AM EDT 7:42 PM EDT
Civil Twilight 5:43 AM EDT 8:13 PM EDT
Nautical Twilight 5:05 AM EDT 8:50 PM EDT
Astronomical Twilight 4:25 AM EDT 9:31 PM EDT
Moon 10:16 AM EDT 9:22 PM EDT
Length of Visible Light 14h 29m
Length of Day
13h 27m
Tomorrow will be 3m 7s shorter.
Waxing Crescent, 15% of the Moon is Illuminated
Today
Waxing Crescent
Sep 2
First Quarter
Sep 8
Full
Sep 15
Last Quarter
Sep 24
New

Today's Extremes

Country Highs Country Lows

Community

WunderPhotos

Upload Photos

1,748,285 photos uploaded!

Nearby

Snow Depth

Not available.

Earthquake Activity

City Distance Mag. Time & Date
No recent earthquake activity has been reported nearby.
Minimum magnitude displayed is 2.5.

Coastal Water Temperatures

Place Temperature
No Stations Reporting

Nearby Weather Stations